KSWF/SWF METAR and TAF weather

Enter ICAO airport designator
Station Type Date Time Source
KSWF METAR 2019/12/09 13:45 UTC NOAA

KSWF 091345Z VRB04KT 1 1/2SM -RA BR OVC004 01/01 A3010


Station Type Date Time Source
KSWF Decoded METAR 2019/12/09 13:45 UTC NOAA

Newburgh / Stewart, NY, United States (KSWF) 41-30N 074-06W
Dec 09, 2019 - 08:45 AM EST / 2019.12.09 1345 UTC
Wind: Variable at 5 MPH (4 KT):0
Visibility: 1 1/2 mile(s):0
Sky conditions: overcast
Weather: light rain; mist
Temperature: 33 F (1 C)
Windchill: 28 F (-2 C):1
Dew Point: 33 F (1 C)
Relative Humidity: 100%
Pressure (altimeter): 30.1 in. Hg (1019 hPa)
ob: KSWF 091345Z VRB04KT 1 1/2SM -RA BR OVC004 01/01 A3010
cycle: 14

Station Type Date Time Source
KSWF TAF 2019/12/09 13:51 UTC NOAA

TAF
AMD KSWF 091248Z 0913/1018 VRB03KT 1SM -RA BR OVC004 WS020/20040KT
FM091900 18010KT 2SM RA BR SCT004 OVC007 WS020/20040KT
FM100400 24012KT 3SM RA SCT004 OVC010
FM100800 25012KT 6SM BR VCSH OVC025
AMD NOT SKED

Example: see airport list